sensor_id;sensor_type;location;lat;lon;timestamp;P1;durP1;ratioP1;P2;durP2;ratioP2
52480;SDS011;38393;52.404;13.532;2023-07-31T00:02:21;4.22;;;2.10;;
52480;SDS011;38393;52.404;13.532;2023-07-31T00:04:47;4.13;;;1.92;;
52480;SDS011;38393;52.404;13.532;2023-07-31T00:07:13;3.05;;;2.13;;
52480;SDS011;38393;52.404;13.532;2023-07-31T00:09:39;3.90;;;2.20;;
52480;SDS011;38393;52.404;13.532;2023-07-31T00:12:05;4.13;;;2.28;;
52480;SDS011;38393;52.404;13.532;2023-07-31T00:14:31;4.53;;;2.10;;
52480;SDS011;38393;52.404;13.532;2023-07-31T00:16:56;4.72;;;2.50;;
52480;SDS011;38393;52.404;13.532;2023-07-31T00:19:21;5.13;;;2.50;;
52480;SDS011;38393;52.404;13.532;2023-07-31T00:21:47;5.10;;;2.50;;
52480;SDS011;38393;52.404;13.532;2023-07-31T00:24:13;5.78;;;2.30;;
52480;SDS011;38393;52.404;13.532;2023-07-31T00:26:38;4.75;;;2.50;;
52480;SDS011;38393;52.404;13.532;2023-07-31T00:29:04;5.97;;;2.10;;
52480;SDS011;38393;52.404;13.532;2023-07-31T00:31:29;10.65;;;6.55;;
52480;SDS011;38393;52.404;13.532;2023-07-31T00:33:56;8.55;;;3.28;;
52480;SDS011;38393;52.404;13.532;2023-07-31T00:36:21;6.45;;;2.80;;
52480;SDS011;38393;52.404;13.532;2023-07-31T00:38:47;4.90;;;2.17;;
52480;SDS011;38393;52.404;13.532;2023-07-31T00:41:12;5.13;;;2.17;;
52480;SDS011;38393;52.404;13.532;2023-07-31T00:43:38;4.00;;;2.20;;
52480;SDS011;38393;52.404;13.532;2023-07-31T00:46:03;5.45;;;2.40;;
52480;SDS011;38393;52.404;13.532;2023-07-31T00:48:29;7.88;;;2.20;;
52480;SDS011;38393;52.404;13.532;2023-07-31T00:50:55;5.78;;;2.45;;
52480;SDS011;38393;52.404;13.532;2023-07-31T00:53:20;3.20;;;2.38;;
52480;SDS011;38393;52.404;13.532;2023-07-31T00:55:46;4.90;;;2.13;;
52480;SDS011;38393;52.404;13.532;2023-07-31T00:58:11;6.40;;;2.30;;
52480;SDS011;38393;52.404;13.532;2023-07-31T01:00:37;4.10;;;2.00;;
52480;SDS011;38393;52.404;13.532;2023-07-31T01:03:02;3.45;;;2.15;;
52480;SDS011;38393;52.404;13.532;2023-07-31T01:05:38;3.90;;;2.42;;
52480;SDS011;38393;52.404;13.532;2023-07-31T01:11:02;5.18;;;2.72;;
52480;SDS011;38393;52.404;13.532;2023-07-31T01:13:34;4.20;;;2.67;;
52480;SDS011;38393;52.404;13.532;2023-07-31T01:16:00;4.22;;;2.83;;
52480;SDS011;38393;52.404;13.532;2023-07-31T01:18:26;6.15;;;3.03;;
52480;SDS011;38393;52.404;13.532;2023-07-31T01:20:54;6.40;;;2.80;;
52480;SDS011;38393;52.404;13.532;2023-07-31T01:23:40;7.32;;;2.90;;
52480;SDS011;38393;52.404;13.532;2023-07-31T01:26:28;5.35;;;2.88;;
52480;SDS011;38393;52.404;13.532;2023-07-31T01:31:29;6.70;;;3.28;;
52480;SDS011;38393;52.404;13.532;2023-07-31T01:33:57;7.13;;;2.80;;
52480;SDS011;38393;52.404;13.532;2023-07-31T01:36:25;5.45;;;3.10;;
52480;SDS011;38393;52.404;13.532;2023-07-31T01:38:51;5.30;;;2.92;;
52480;SDS011;38393;52.404;13.532;2023-07-31T01:41:17;9.07;;;3.00;;
52480;SDS011;38393;52.404;13.532;2023-07-31T01:43:43;7.05;;;3.22;;
52480;SDS011;38393;52.404;13.532;2023-07-31T01:46:09;5.45;;;3.00;;
52480;SDS011;38393;52.404;13.532;2023-07-31T01:48:35;8.20;;;3.60;;
52480;SDS011;38393;52.404;13.532;2023-07-31T01:51:01;8.10;;;3.20;;
52480;SDS011;38393;52.404;13.532;2023-07-31T01:53:28;7.82;;;3.40;;
52480;SDS011;38393;52.404;13.532;2023-07-31T01:55:54;7.03;;;3.17;;
52480;SDS011;38393;52.404;13.532;2023-07-31T01:58:19;6.25;;;3.60;;
52480;SDS011;38393;52.404;13.532;2023-07-31T02:00:45;6.30;;;3.15;;
52480;SDS011;38393;52.404;13.532;2023-07-31T02:03:11;7.45;;;4.40;;
52480;SDS011;38393;52.404;13.532;2023-07-31T02:05:36;8.77;;;3.83;;
52480;SDS011;38393;52.404;13.532;2023-07-31T02:08:12;8.27;;;3.80;;
52480;SDS011;38393;52.404;13.532;2023-07-31T02:10:38;7.20;;;3.80;;
52480;SDS011;38393;52.404;13.532;2023-07-31T02:13:03;7.05;;;4.07;;
52480;SDS011;38393;52.404;13.532;2023-07-31T02:15:29;8.30;;;4.05;;
52480;SDS011;38393;52.404;13.532;2023-07-31T02:17:55;7.07;;;3.90;;
52480;SDS011;38393;52.404;13.532;2023-07-31T02:20:21;6.65;;;4.00;;
52480;SDS011;38393;52.404;13.532;2023-07-31T02:22:46;7.05;;;3.90;;
52480;SDS011;38393;52.404;13.532;2023-07-31T02:25:12;7.93;;;3.80;;
52480;SDS011;38393;52.404;13.532;2023-07-31T02:27:37;10.82;;;4.25;;
52480;SDS011;38393;52.404;13.532;2023-07-31T02:30:03;9.90;;;4.00;;
52480;SDS011;38393;52.404;13.532;2023-07-31T02:32:29;10.27;;;4.72;;
52480;SDS011;38393;52.404;13.532;2023-07-31T02:34:54;9.88;;;4.30;;
52480;SDS011;38393;52.404;13.532;2023-07-31T02:37:20;7.53;;;4.32;;
52480;SDS011;38393;52.404;13.532;2023-07-31T02:39:45;10.68;;;4.60;;
52480;SDS011;38393;52.404;13.532;2023-07-31T02:42:11;7.57;;;4.47;;
52480;SDS011;38393;52.404;13.532;2023-07-31T02:44:37;8.73;;;4.28;;
52480;SDS011;38393;52.404;13.532;2023-07-31T02:47:03;9.40;;;4.50;;
52480;SDS011;38393;52.404;13.532;2023-07-31T02:49:28;9.25;;;4.72;;
52480;SDS011;38393;52.404;13.532;2023-07-31T02:51:54;7.57;;;4.28;;
52480;SDS011;38393;52.404;13.532;2023-07-31T02:54:19;12.35;;;4.28;;
52480;SDS011;38393;52.404;13.532;2023-07-31T02:56:46;6.93;;;4.93;;
52480;SDS011;38393;52.404;13.532;2023-07-31T02:59:12;9.35;;;4.80;;
52480;SDS011;38393;52.404;13.532;2023-07-31T03:01:37;9.35;;;4.78;;
52480;SDS011;38393;52.404;13.532;2023-07-31T03:04:03;8.45;;;5.28;;
52480;SDS011;38393;52.404;13.532;2023-07-31T03:06:29;11.20;;;5.60;;
52480;SDS011;38393;52.404;13.532;2023-07-31T03:08:54;10.13;;;5.30;;
52480;SDS011;38393;52.404;13.532;2023-07-31T03:11:20;7.30;;;4.97;;
52480;SDS011;38393;52.404;13.532;2023-07-31T03:13:45;9.18;;;5.38;;
52480;SDS011;38393;52.404;13.532;2023-07-31T03:16:11;9.30;;;5.28;;
52480;SDS011;38393;52.404;13.532;2023-07-31T03:18:36;12.02;;;5.35;;
52480;SDS011;38393;52.404;13.532;2023-07-31T03:21:02;7.60;;;4.60;;
52480;SDS011;38393;52.404;13.532;2023-07-31T03:23:27;6.47;;;4.47;;
52480;SDS011;38393;52.404;13.532;2023-07-31T03:25:56;10.93;;;4.72;;
52480;SDS011;38393;52.404;13.532;2023-07-31T03:28:23;6.90;;;4.30;;
52480;SDS011;38393;52.404;13.532;2023-07-31T03:30:48;8.52;;;4.72;;
52480;SDS011;38393;52.404;13.532;2023-07-31T03:33:14;9.88;;;5.00;;
52480;SDS011;38393;52.404;13.532;2023-07-31T03:35:39;8.47;;;4.33;;
52480;SDS011;38393;52.404;13.532;2023-07-31T03:38:05;11.32;;;4.90;;
52480;SDS011;38393;52.404;13.532;2023-07-31T03:40:30;7.70;;;4.30;;
52480;SDS011;38393;52.404;13.532;2023-07-31T03:42:56;7.38;;;4.50;;
52480;SDS011;38393;52.404;13.532;2023-07-31T03:45:21;10.40;;;4.47;;
52480;SDS011;38393;52.404;13.532;2023-07-31T03:47:47;5.97;;;4.80;;
52480;SDS011;38393;52.404;13.532;2023-07-31T03:50:12;8.75;;;4.78;;
52480;SDS011;38393;52.404;13.532;2023-07-31T03:52:38;10.00;;;4.40;;
52480;SDS011;38393;52.404;13.532;2023-07-31T03:55:03;10.35;;;4.55;;
52480;SDS011;38393;52.404;13.532;2023-07-31T03:57:29;12.73;;;5.03;;
52480;SDS011;38393;52.404;13.532;2023-07-31T03:59:57;8.55;;;4.57;;
52480;SDS011;38393;52.404;13.532;2023-07-31T04:02:23;7.30;;;4.13;;
52480;SDS011;38393;52.404;13.532;2023-07-31T04:04:48;12.05;;;4.65;;
52480;SDS011;38393;52.404;13.532;2023-07-31T04:07:14;6.63;;;3.88;;
52480;SDS011;38393;52.404;13.532;2023-07-31T04:09:39;8.23;;;4.53;;
52480;SDS011;38393;52.404;13.532;2023-07-31T04:12:05;10.68;;;4.40;;
52480;SDS011;38393;52.404;13.532;2023-07-31T04:14:30;9.60;;;4.47;;
52480;SDS011;38393;52.404;13.532;2023-07-31T04:16:56;8.57;;;4.63;;
52480;SDS011;38393;52.404;13.532;2023-07-31T04:19:21;9.65;;;4.45;;
52480;SDS011;38393;52.404;13.532;2023-07-31T04:21:47;10.27;;;4.22;;
52480;SDS011;38393;52.404;13.532;2023-07-31T04:24:12;9.50;;;4.32;;
52480;SDS011;38393;52.404;13.532;2023-07-31T04:26:38;8.07;;;4.38;;
52480;SDS011;38393;52.404;13.532;2023-07-31T04:29:03;9.60;;;4.63;;
52480;SDS011;38393;52.404;13.532;2023-07-31T04:31:29;7.05;;;3.90;;
52480;SDS011;38393;52.404;13.532;2023-07-31T04:33:54;11.75;;;4.45;;
52480;SDS011;38393;52.404;13.532;2023-07-31T04:36:20;8.65;;;4.25;;
52480;SDS011;38393;52.404;13.532;2023-07-31T04:38:45;8.98;;;4.28;;
52480;SDS011;38393;52.404;13.532;2023-07-31T04:41:10;10.82;;;4.25;;
52480;SDS011;38393;52.404;13.532;2023-07-31T04:43:36;14.25;;;4.50;;
52480;SDS011;38393;52.404;13.532;2023-07-31T04:46:04;8.80;;;4.25;;
52480;SDS011;38393;52.404;13.532;2023-07-31T04:48:30;13.23;;;4.28;;
52480;SDS011;38393;52.404;13.532;2023-07-31T04:50:55;7.85;;;3.80;;
52480;SDS011;38393;52.404;13.532;2023-07-31T04:53:21;14.05;;;4.40;;
52480;SDS011;38393;52.404;13.532;2023-07-31T04:55:46;9.95;;;3.88;;
52480;SDS011;38393;52.404;13.532;2023-07-31T04:58:12;8.95;;;3.67;;
52480;SDS011;38393;52.404;13.532;2023-07-31T05:00:37;7.82;;;3.65;;
52480;SDS011;38393;52.404;13.532;2023-07-31T05:03:02;9.32;;;3.72;;
52480;SDS011;38393;52.404;13.532;2023-07-31T05:05:28;8.20;;;3.60;;
52480;SDS011;38393;52.404;13.532;2023-07-31T05:07:53;17.70;;;3.80;;
52480;SDS011;38393;52.404;13.532;2023-07-31T05:10:19;9.40;;;3.72;;
52480;SDS011;38393;52.404;13.532;2023-07-31T05:12:44;8.40;;;3.40;;
52480;SDS011;38393;52.404;13.532;2023-07-31T05:15:10;7.40;;;3.55;;
52480;SDS011;38393;52.404;13.532;2023-07-31T05:17:35;8.48;;;3.60;;
52480;SDS011;38393;52.404;13.532;2023-07-31T05:20:01;6.97;;;3.22;;
52480;SDS011;38393;52.404;13.532;2023-07-31T05:22:26;7.65;;;3.15;;
52480;SDS011;38393;52.404;13.532;2023-07-31T05:24:52;9.45;;;3.42;;
52480;SDS011;38393;52.404;13.532;2023-07-31T05:27:19;5.47;;;3.35;;
52480;SDS011;38393;52.404;13.532;2023-07-31T05:29:44;10.30;;;3.47;;
52480;SDS011;38393;52.404;13.532;2023-07-31T05:32:10;8.30;;;3.42;;
52480;SDS011;38393;52.404;13.532;2023-07-31T05:34:35;7.07;;;3.72;;
52480;SDS011;38393;52.404;13.532;2023-07-31T05:37:01;7.15;;;3.78;;
52480;SDS011;38393;52.404;13.532;2023-07-31T05:39:26;9.77;;;3.63;;
52480;SDS011;38393;52.404;13.532;2023-07-31T05:41:52;7.20;;;3.28;;
52480;SDS011;38393;52.404;13.532;2023-07-31T05:44:17;7.15;;;3.45;;
52480;SDS011;38393;52.404;13.532;2023-07-31T05:46:43;8.98;;;3.40;;
52480;SDS011;38393;52.404;13.532;2023-07-31T05:49:08;6.32;;;3.40;;
52480;SDS011;38393;52.404;13.532;2023-07-31T05:51:33;11.60;;;3.67;;
52480;SDS011;38393;52.404;13.532;2023-07-31T05:53:59;8.10;;;3.58;;
52480;SDS011;38393;52.404;13.532;2023-07-31T05:56:24;7.10;;;3.50;;
52480;SDS011;38393;52.404;13.532;2023-07-31T05:58:52;5.97;;;3.35;;
52480;SDS011;38393;52.404;13.532;2023-07-31T06:01:17;7.75;;;3.05;;
52480;SDS011;38393;52.404;13.532;2023-07-31T06:03:43;7.80;;;3.40;;
52480;SDS011;38393;52.404;13.532;2023-07-31T06:06:09;7.70;;;3.40;;
52480;SDS011;38393;52.404;13.532;2023-07-31T06:08:34;6.68;;;3.35;;
52480;SDS011;38393;52.404;13.532;2023-07-31T06:11:00;7.53;;;3.40;;
52480;SDS011;38393;52.404;13.532;2023-07-31T06:13:25;8.38;;;3.47;;
52480;SDS011;38393;52.404;13.532;2023-07-31T06:15:51;8.48;;;3.25;;
52480;SDS011;38393;52.404;13.532;2023-07-31T06:18:17;10.68;;;3.22;;
52480;SDS011;38393;52.404;13.532;2023-07-31T06:20:42;7.30;;;3.22;;
52480;SDS011;38393;52.404;13.532;2023-07-31T06:23:08;8.73;;;3.28;;
52480;SDS011;38393;52.404;13.532;2023-07-31T06:25:33;5.75;;;3.30;;
52480;SDS011;38393;52.404;13.532;2023-07-31T06:27:58;6.93;;;3.10;;
52480;SDS011;38393;52.404;13.532;2023-07-31T06:30:24;8.00;;;3.25;;
52480;SDS011;38393;52.404;13.532;2023-07-31T06:32:49;7.63;;;3.13;;
52480;SDS011;38393;52.404;13.532;2023-07-31T06:35:15;9.25;;;3.28;;
52480;SDS011;38393;52.404;13.532;2023-07-31T06:37:40;6.60;;;3.13;;
52480;SDS011;38393;52.404;13.532;2023-07-31T06:40:08;5.90;;;3.10;;
52480;SDS011;38393;52.404;13.532;2023-07-31T06:42:34;8.20;;;3.45;;
52480;SDS011;38393;52.404;13.532;2023-07-31T06:45:00;5.55;;;3.13;;
52480;SDS011;38393;52.404;13.532;2023-07-31T06:47:27;7.15;;;3.22;;
52480;SDS011;38393;52.404;13.532;2023-07-31T06:49:52;7.60;;;3.53;;
52480;SDS011;38393;52.404;13.532;2023-07-31T06:52:18;11.27;;;3.83;;
52480;SDS011;38393;52.404;13.532;2023-07-31T06:54:44;7.70;;;3.10;;
52480;SDS011;38393;52.404;13.532;2023-07-31T06:57:09;12.32;;;3.60;;
52480;SDS011;38393;52.404;13.532;2023-07-31T06:59:34;7.07;;;3.20;;
52480;SDS011;38393;52.404;13.532;2023-07-31T07:02:00;7.82;;;3.67;;
52480;SDS011;38393;52.404;13.532;2023-07-31T07:04:25;11.27;;;3.38;;
52480;SDS011;38393;52.404;13.532;2023-07-31T07:06:51;10.15;;;3.65;;
52480;SDS011;38393;52.404;13.532;2023-07-31T07:09:17;8.23;;;3.35;;
52480;SDS011;38393;52.404;13.532;2023-07-31T07:11:43;8.07;;;3.60;;
52480;SDS011;38393;52.404;13.532;2023-07-31T07:14:08;5.82;;;3.35;;
52480;SDS011;38393;52.404;13.532;2023-07-31T07:16:33;12.23;;;3.70;;
52480;SDS011;38393;52.404;13.532;2023-07-31T07:18:59;8.63;;;3.97;;
52480;SDS011;38393;52.404;13.532;2023-07-31T07:21:24;9.25;;;3.83;;
52480;SDS011;38393;52.404;13.532;2023-07-31T07:23:50;8.05;;;4.10;;
52480;SDS011;38393;52.404;13.532;2023-07-31T07:26:15;9.23;;;3.75;;
52480;SDS011;38393;52.404;13.532;2023-07-31T07:28:41;9.18;;;3.90;;
52480;SDS011;38393;52.404;13.532;2023-07-31T07:31:06;8.85;;;4.00;;
52480;SDS011;38393;52.404;13.532;2023-07-31T07:33:32;10.70;;;3.83;;
52480;SDS011;38393;52.404;13.532;2023-07-31T07:36:00;9.65;;;3.80;;
52480;SDS011;38393;52.404;13.532;2023-07-31T07:38:26;11.98;;;3.92;;
52480;SDS011;38393;52.404;13.532;2023-07-31T07:40:52;8.30;;;3.80;;
52480;SDS011;38393;52.404;13.532;2023-07-31T07:43:18;6.60;;;3.70;;
52480;SDS011;38393;52.404;13.532;2023-07-31T07:45:43;9.43;;;4.13;;
52480;SDS011;38393;52.404;13.532;2023-07-31T07:48:09;10.45;;;3.80;;
52480;SDS011;38393;52.404;13.532;2023-07-31T07:50:34;7.90;;;3.30;;
52480;SDS011;38393;52.404;13.532;2023-07-31T07:53:00;5.32;;;3.40;;
52480;SDS011;38393;52.404;13.532;2023-07-31T07:55:25;8.93;;;3.55;;
52480;SDS011;38393;52.404;13.532;2023-07-31T07:57:51;4.88;;;2.70;;
52480;SDS011;38393;52.404;13.532;2023-07-31T08:00:16;6.93;;;3.35;;
52480;SDS011;38393;52.404;13.532;2023-07-31T08:02:42;5.88;;;3.28;;
52480;SDS011;38393;52.404;13.532;2023-07-31T08:05:08;6.55;;;3.08;;
52480;SDS011;38393;52.404;13.532;2023-07-31T08:07:34;7.22;;;3.72;;
52480;SDS011;38393;52.404;13.532;2023-07-31T08:09:59;5.97;;;2.90;;
52480;SDS011;38393;52.404;13.532;2023-07-31T08:12:25;6.65;;;3.40;;
52480;SDS011;38393;52.404;13.532;2023-07-31T08:14:50;5.07;;;3.30;;
52480;SDS011;38393;52.404;13.532;2023-07-31T08:17:16;8.35;;;3.20;;
52480;SDS011;38393;52.404;13.532;2023-07-31T08:19:42;6.43;;;3.58;;
52480;SDS011;38393;52.404;13.532;2023-07-31T08:22:08;5.55;;;3.50;;
52480;SDS011;38393;52.404;13.532;2023-07-31T08:24:34;5.93;;;3.63;;
52480;SDS011;38393;52.404;13.532;2023-07-31T08:27:00;6.20;;;4.25;;
52480;SDS011;38393;52.404;13.532;2023-07-31T08:29:25;5.57;;;3.83;;
52480;SDS011;38393;52.404;13.532;2023-07-31T08:31:50;7.22;;;4.15;;
52480;SDS011;38393;52.404;13.532;2023-07-31T08:34:16;8.25;;;4.60;;
52480;SDS011;38393;52.404;13.532;2023-07-31T08:36:41;8.27;;;3.70;;
52480;SDS011;38393;52.404;13.532;2023-07-31T08:39:07;6.88;;;3.75;;
52480;SDS011;38393;52.404;13.532;2023-07-31T08:41:37;8.57;;;3.92;;
52480;SDS011;38393;52.404;13.532;2023-07-31T08:44:03;7.72;;;3.92;;
52480;SDS011;38393;52.404;13.532;2023-07-31T08:46:29;6.75;;;3.30;;
52480;SDS011;38393;52.404;13.532;2023-07-31T08:48:55;7.57;;;3.30;;
52480;SDS011;38393;52.404;13.532;2023-07-31T08:51:21;9.75;;;3.47;;
52480;SDS011;38393;52.404;13.532;2023-07-31T08:53:46;6.55;;;3.40;;
52480;SDS011;38393;52.404;13.532;2023-07-31T08:56:12;9.48;;;3.55;;
52480;SDS011;38393;52.404;13.532;2023-07-31T08:58:40;6.18;;;3.35;;
52480;SDS011;38393;52.404;13.532;2023-07-31T09:01:05;5.00;;;3.08;;
52480;SDS011;38393;52.404;13.532;2023-07-31T09:03:33;5.47;;;3.05;;
52480;SDS011;38393;52.404;13.532;2023-07-31T09:06:00;4.13;;;2.83;;
52480;SDS011;38393;52.404;13.532;2023-07-31T09:08:29;12.73;;;3.00;;
52480;SDS011;38393;52.404;13.532;2023-07-31T09:10:58;6.50;;;2.65;;
52480;SDS011;38393;52.404;13.532;2023-07-31T09:13:31;4.85;;;2.55;;
52480;SDS011;38393;52.404;13.532;2023-07-31T09:15:57;4.63;;;2.60;;
52480;SDS011;38393;52.404;13.532;2023-07-31T09:18:23;5.82;;;2.20;;
52480;SDS011;38393;52.404;13.532;2023-07-31T09:21:01;3.40;;;1.92;;
52480;SDS011;38393;52.404;13.532;2023-07-31T09:23:39;4.00;;;2.10;;
52480;SDS011;38393;52.404;13.532;2023-07-31T09:26:06;2.42;;;1.60;;
52480;SDS011;38393;52.404;13.532;2023-07-31T09:28:31;1.77;;;1.25;;
52480;SDS011;38393;52.404;13.532;2023-07-31T09:30:57;1.98;;;1.15;;
52480;SDS011;38393;52.404;13.532;2023-07-31T09:33:22;2.92;;;1.20;;
52480;SDS011;38393;52.404;13.532;2023-07-31T09:35:48;1.90;;;1.00;;
52480;SDS011;38393;52.404;13.532;2023-07-31T09:38:14;1.92;;;1.20;;
52480;SDS011;38393;52.404;13.532;2023-07-31T09:40:46;1.23;;;0.90;;
52480;SDS011;38393;52.404;13.532;2023-07-31T09:43:13;1.67;;;1.00;;
52480;SDS011;38393;52.404;13.532;2023-07-31T09:45:43;2.90;;;1.33;;
52480;SDS011;38393;52.404;13.532;2023-07-31T09:48:10;3.03;;;1.48;;
52480;SDS011;38393;52.404;13.532;2023-07-31T09:50:38;4.28;;;1.73;;
52480;SDS011;38393;52.404;13.532;2023-07-31T09:53:04;3.90;;;1.90;;
52480;SDS011;38393;52.404;13.532;2023-07-31T09:55:30;5.50;;;2.47;;
52480;SDS011;38393;52.404;13.532;2023-07-31T09:57:59;5.45;;;2.20;;
52480;SDS011;38393;52.404;13.532;2023-07-31T10:00:28;3.17;;;2.33;;
52480;SDS011;38393;52.404;13.532;2023-07-31T10:02:55;3.28;;;2.10;;
52480;SDS011;38393;52.404;13.532;2023-07-31T10:05:24;4.38;;;2.78;;
52480;SDS011;38393;52.404;13.532;2023-07-31T10:07:59;4.63;;;2.40;;
52480;SDS011;38393;52.404;13.532;2023-07-31T10:10:25;6.85;;;2.90;;
52480;SDS011;38393;52.404;13.532;2023-07-31T10:12:53;9.13;;;3.03;;
52480;SDS011;38393;52.404;13.532;2023-07-31T10:15:19;4.85;;;2.63;;
52480;SDS011;38393;52.404;13.532;2023-07-31T10:17:48;7.13;;;3.17;;
52480;SDS011;38393;52.404;13.532;2023-07-31T10:20:15;4.80;;;3.03;;
52480;SDS011;38393;52.404;13.532;2023-07-31T10:22:41;8.45;;;3.90;;
52480;SDS011;38393;52.404;13.532;2023-07-31T10:25:08;6.80;;;3.53;;
52480;SDS011;38393;52.404;13.532;2023-07-31T10:27:35;8.95;;;3.95;;
52480;SDS011;38393;52.404;13.532;2023-07-31T10:30:03;8.90;;;3.55;;
52480;SDS011;38393;52.404;13.532;2023-07-31T10:32:31;6.53;;;3.90;;
52480;SDS011;38393;52.404;13.532;2023-07-31T10:34:57;8.13;;;4.18;;
52480;SDS011;38393;52.404;13.532;2023-07-31T10:37:23;8.60;;;3.90;;
52480;SDS011;38393;52.404;13.532;2023-07-31T10:40:06;8.85;;;4.05;;
52480;SDS011;38393;52.404;13.532;2023-07-31T10:42:35;8.20;;;4.00;;
52480;SDS011;38393;52.404;13.532;2023-07-31T10:45:04;9.40;;;4.13;;
52480;SDS011;38393;52.404;13.532;2023-07-31T10:47:36;13.38;;;3.80;;
52480;SDS011;38393;52.404;13.532;2023-07-31T10:50:12;11.70;;;4.18;;
52480;SDS011;38393;52.404;13.532;2023-07-31T10:52:38;9.15;;;3.63;;
52480;SDS011;38393;52.404;13.532;2023-07-31T10:55:24;7.22;;;3.58;;
52480;SDS011;38393;52.404;13.532;2023-07-31T10:57:52;10.18;;;3.65;;
52480;SDS011;38393;52.404;13.532;2023-07-31T11:00:28;9.18;;;3.55;;
52480;SDS011;38393;52.404;13.532;2023-07-31T11:05:40;7.65;;;3.42;;
52480;SDS011;38393;52.404;13.532;2023-07-31T11:08:11;4.93;;;3.15;;
52480;SDS011;38393;52.404;13.532;2023-07-31T11:10:36;4.80;;;3.00;;
52480;SDS011;38393;52.404;13.532;2023-07-31T11:13:03;5.18;;;2.65;;
52480;SDS011;38393;52.404;13.532;2023-07-31T11:15:29;3.72;;;2.60;;
52480;SDS011;38393;52.404;13.532;2023-07-31T11:17:55;4.03;;;2.58;;
52480;SDS011;38393;52.404;13.532;2023-07-31T11:20:23;5.22;;;2.83;;
52480;SDS011;38393;52.404;13.532;2023-07-31T11:22:49;6.85;;;3.00;;
52480;SDS011;38393;52.404;13.532;2023-07-31T11:25:15;5.20;;;2.58;;
52480;SDS011;38393;52.404;13.532;2023-07-31T11:27:41;5.68;;;2.80;;
52480;SDS011;38393;52.404;13.532;2023-07-31T11:30:08;5.40;;;2.55;;
52480;SDS011;38393;52.404;13.532;2023-07-31T11:32:36;7.35;;;2.85;;
52480;SDS011;38393;52.404;13.532;2023-07-31T11:35:02;6.50;;;2.97;;
52480;SDS011;38393;52.404;13.532;2023-07-31T11:37:41;5.78;;;2.72;;
52480;SDS011;38393;52.404;13.532;2023-07-31T11:40:08;4.25;;;2.60;;
52480;SDS011;38393;52.404;13.532;2023-07-31T11:42:34;3.75;;;2.42;;
52480;SDS011;38393;52.404;13.532;2023-07-31T11:45:04;4.07;;;2.50;;
52480;SDS011;38393;52.404;13.532;2023-07-31T11:47:31;6.20;;;2.70;;
52480;SDS011;38393;52.404;13.532;2023-07-31T11:49:59;7.90;;;2.90;;
52480;SDS011;38393;52.404;13.532;2023-07-31T11:52:26;7.10;;;2.72;;
52480;SDS011;38393;52.404;13.532;2023-07-31T11:54:54;5.68;;;2.60;;
52480;SDS011;38393;52.404;13.532;2023-07-31T11:57:20;4.47;;;2.60;;
52480;SDS011;38393;52.404;13.532;2023-07-31T11:59:47;5.35;;;2.30;;
52480;SDS011;38393;52.404;13.532;2023-07-31T12:02:13;4.93;;;2.33;;
52480;SDS011;38393;52.404;13.532;2023-07-31T12:04:39;4.85;;;2.50;;
52480;SDS011;38393;52.404;13.532;2023-07-31T12:07:05;3.83;;;2.22;;
52480;SDS011;38393;52.404;13.532;2023-07-31T12:09:31;8.73;;;2.70;;
52480;SDS011;38393;52.404;13.532;2023-07-31T12:11:56;4.47;;;2.58;;
52480;SDS011;38393;52.404;13.532;2023-07-31T12:14:23;8.15;;;2.70;;
52480;SDS011;38393;52.404;13.532;2023-07-31T12:19:24;5.00;;;2.60;;
52480;SDS011;38393;52.404;13.532;2023-07-31T12:21:53;5.93;;;2.60;;
52480;SDS011;38393;52.404;13.532;2023-07-31T12:24:18;5.97;;;2.22;;
52480;SDS011;38393;52.404;13.532;2023-07-31T12:26:45;6.00;;;3.00;;
52480;SDS011;38393;52.404;13.532;2023-07-31T12:29:11;9.07;;;2.80;;
52480;SDS011;38393;52.404;13.532;2023-07-31T12:31:37;4.97;;;2.50;;
52480;SDS011;38393;52.404;13.532;2023-07-31T12:34:14;7.60;;;2.35;;
52480;SDS011;38393;52.404;13.532;2023-07-31T12:36:43;5.78;;;2.10;;
52480;SDS011;38393;52.404;13.532;2023-07-31T12:39:09;4.65;;;2.40;;
52480;SDS011;38393;52.404;13.532;2023-07-31T12:41:35;6.03;;;2.45;;
52480;SDS011;38393;52.404;13.532;2023-07-31T12:44:00;4.45;;;2.28;;
52480;SDS011;38393;52.404;13.532;2023-07-31T12:46:26;4.57;;;2.10;;
52480;SDS011;38393;52.404;13.532;2023-07-31T12:48:51;8.80;;;2.28;;
52480;SDS011;38393;52.404;13.532;2023-07-31T12:51:16;4.78;;;1.88;;
52480;SDS011;38393;52.404;13.532;2023-07-31T12:53:42;3.50;;;1.95;;
52480;SDS011;38393;52.404;13.532;2023-07-31T12:56:08;10.63;;;1.98;;
52480;SDS011;38393;52.404;13.532;2023-07-31T12:58:33;6.50;;;2.60;;
52480;SDS011;38393;52.404;13.532;2023-07-31T13:00:59;3.85;;;1.67;;
52480;SDS011;38393;52.404;13.532;2023-07-31T13:03:24;6.20;;;1.98;;
52480;SDS011;38393;52.404;13.532;2023-07-31T13:05:50;6.80;;;2.30;;
52480;SDS011;38393;52.404;13.532;2023-07-31T13:08:17;4.20;;;1.90;;
52480;SDS011;38393;52.404;13.532;2023-07-31T13:10:42;3.28;;;1.95;;
52480;SDS011;38393;52.404;13.532;2023-07-31T13:13:09;4.10;;;2.20;;
52480;SDS011;38393;52.404;13.532;2023-07-31T13:15:34;5.10;;;2.35;;
52480;SDS011;38393;52.404;13.532;2023-07-31T13:18:00;4.55;;;2.50;;
52480;SDS011;38393;52.404;13.532;2023-07-31T13:20:25;7.63;;;2.58;;
52480;SDS011;38393;52.404;13.532;2023-07-31T13:22:51;6.50;;;2.45;;
52480;SDS011;38393;52.404;13.532;2023-07-31T13:25:16;5.07;;;2.20;;
52480;SDS011;38393;52.404;13.532;2023-07-31T13:27:42;6.35;;;2.72;;
52480;SDS011;38393;52.404;13.532;2023-07-31T13:30:08;4.55;;;2.70;;
52480;SDS011;38393;52.404;13.532;2023-07-31T13:32:33;9.50;;;3.10;;
52480;SDS011;38393;52.404;13.532;2023-07-31T13:35:03;6.85;;;2.80;;
52480;SDS011;38393;52.404;13.532;2023-07-31T13:37:30;7.57;;;2.58;;
52480;SDS011;38393;52.404;13.532;2023-07-31T13:39:55;6.25;;;2.78;;
52480;SDS011;38393;52.404;13.532;2023-07-31T13:42:21;3.97;;;2.60;;
52480;SDS011;38393;52.404;13.532;2023-07-31T13:44:47;4.68;;;2.63;;
52480;SDS011;38393;52.404;13.532;2023-07-31T13:47:12;6.65;;;2.65;;
52480;SDS011;38393;52.404;13.532;2023-07-31T13:49:38;5.28;;;2.65;;
52480;SDS011;38393;52.404;13.532;2023-07-31T13:52:04;3.88;;;2.63;;
52480;SDS011;38393;52.404;13.532;2023-07-31T13:54:29;9.25;;;2.80;;
52480;SDS011;38393;52.404;13.532;2023-07-31T13:56:55;5.70;;;3.05;;
52480;SDS011;38393;52.404;13.532;2023-07-31T13:59:21;7.97;;;2.88;;
52480;SDS011;38393;52.404;13.532;2023-07-31T14:01:46;8.23;;;2.47;;
52480;SDS011;38393;52.404;13.532;2023-07-31T14:04:12;4.50;;;2.33;;
52480;SDS011;38393;52.404;13.532;2023-07-31T14:06:38;5.85;;;2.70;;
52480;SDS011;38393;52.404;13.532;2023-07-31T14:09:04;4.45;;;2.60;;
52480;SDS011;38393;52.404;13.532;2023-07-31T14:11:32;7.18;;;2.92;;
52480;SDS011;38393;52.404;13.532;2023-07-31T14:13:58;4.63;;;2.63;;
52480;SDS011;38393;52.404;13.532;2023-07-31T14:16:24;4.30;;;2.78;;
52480;SDS011;38393;52.404;13.532;2023-07-31T14:18:50;7.35;;;2.55;;
52480;SDS011;38393;52.404;13.532;2023-07-31T14:21:15;6.13;;;2.60;;
52480;SDS011;38393;52.404;13.532;2023-07-31T14:23:41;6.18;;;2.70;;
52480;SDS011;38393;52.404;13.532;2023-07-31T14:26:06;6.88;;;2.55;;
52480;SDS011;38393;52.404;13.532;2023-07-31T14:28:32;5.53;;;2.50;;
52480;SDS011;38393;52.404;13.532;2023-07-31T14:30:58;5.68;;;2.78;;
52480;SDS011;38393;52.404;13.532;2023-07-31T14:33:24;5.57;;;2.83;;
52480;SDS011;38393;52.404;13.532;2023-07-31T14:35:49;6.43;;;2.70;;
52480;SDS011;38393;52.404;13.532;2023-07-31T14:38:15;4.65;;;2.70;;
52480;SDS011;38393;52.404;13.532;2023-07-31T14:40:41;7.00;;;2.85;;